sensor_id;sensor_type;location;lat;lon;timestamp;P1;durP1;ratioP1;P2;durP2;ratioP2
53939;SDS011;39850;43.324;21.916;2023-08-07T00:02:29;8.0;;;6.0;;
53939;SDS011;39850;43.324;21.916;2023-08-07T00:07:06;8.0;;;6.0;;
53939;SDS011;39850;43.324;21.916;2023-08-07T00:11:42;8.0;;;6.0;;
53939;SDS011;39850;43.324;21.916;2023-08-07T00:16:19;8.0;;;6.0;;
53939;SDS011;39850;43.324;21.916;2023-08-07T00:20:55;8.0;;;6.0;;
53939;SDS011;39850;43.324;21.916;2023-08-07T00:25:32;8.0;;;6.0;;
53939;SDS011;39850;43.324;21.916;2023-08-07T00:30:12;8.0;;;6.0;;
53939;SDS011;39850;43.324;21.916;2023-08-07T00:34:48;8.0;;;6.0;;
53939;SDS011;39850;43.324;21.916;2023-08-07T01:07:08;8.0;;;7.0;;
53939;SDS011;39850;43.324;21.916;2023-08-07T01:12:15;8.0;;;7.0;;
53939;SDS011;39850;43.324;21.916;2023-08-07T01:17:17;8.0;;;7.0;;
53939;SDS011;39850;43.324;21.916;2023-08-07T01:22:18;8.0;;;7.0;;
53939;SDS011;39850;43.324;21.916;2023-08-07T01:27:36;8.0;;;7.0;;
53939;SDS011;39850;43.324;21.916;2023-08-07T01:32:41;8.0;;;7.0;;
53939;SDS011;39850;43.324;21.916;2023-08-07T01:37:31;8.0;;;7.0;;
53939;SDS011;39850;43.324;21.916;2023-08-07T01:42:11;8.0;;;7.0;;
53939;SDS011;39850;43.324;21.916;2023-08-07T01:46:48;9.0;;;7.0;;
53939;SDS011;39850;43.324;21.916;2023-08-07T01:51:25;9.0;;;7.0;;
53939;SDS011;39850;43.324;21.916;2023-08-07T01:56:02;9.0;;;7.0;;
53939;SDS011;39850;43.324;21.916;2023-08-07T02:28:17;10.0;;;7.0;;
53939;SDS011;39850;43.324;21.916;2023-08-07T02:32:53;10.0;;;7.0;;
53939;SDS011;39850;43.324;21.916;2023-08-07T02:37:29;9.0;;;7.0;;
53939;SDS011;39850;43.324;21.916;2023-08-07T02:42:07;9.0;;;7.0;;
53939;SDS011;39850;43.324;21.916;2023-08-07T02:46:44;9.0;;;7.0;;
53939;SDS011;39850;43.324;21.916;2023-08-07T02:51:20;9.0;;;7.0;;
53939;SDS011;39850;43.324;21.916;2023-08-07T02:55:56;9.0;;;7.0;;
53939;SDS011;39850;43.324;21.916;2023-08-07T03:00:36;8.0;;;7.0;;
53939;SDS011;39850;43.324;21.916;2023-08-07T03:05:12;8.0;;;7.0;;
53939;SDS011;39850;43.324;21.916;2023-08-07T03:09:49;9.0;;;7.0;;
53939;SDS011;39850;43.324;21.916;2023-08-07T03:14:25;9.0;;;7.0;;
53939;SDS011;39850;43.324;21.916;2023-08-07T03:51:19;9.0;;;7.0;;
53939;SDS011;39850;43.324;21.916;2023-08-07T03:55:56;9.0;;;7.0;;
53939;SDS011;39850;43.324;21.916;2023-08-07T04:00:33;9.0;;;7.0;;
53939;SDS011;39850;43.324;21.916;2023-08-07T04:05:10;9.0;;;7.0;;
53939;SDS011;39850;43.324;21.916;2023-08-07T04:09:47;9.0;;;7.0;;
53939;SDS011;39850;43.324;21.916;2023-08-07T04:14:23;9.0;;;7.0;;
53939;SDS011;39850;43.324;21.916;2023-08-07T04:18:59;9.0;;;7.0;;
53939;SDS011;39850;43.324;21.916;2023-08-07T04:23:36;9.0;;;7.0;;
53939;SDS011;39850;43.324;21.916;2023-08-07T04:28:13;9.0;;;7.0;;
53939;SDS011;39850;43.324;21.916;2023-08-07T04:32:50;9.0;;;7.0;;
53939;SDS011;39850;43.324;21.916;2023-08-07T05:09:44;15.0;;;10.0;;
53939;SDS011;39850;43.324;21.916;2023-08-07T05:14:20;15.0;;;10.0;;
53939;SDS011;39850;43.324;21.916;2023-08-07T05:18:57;14.0;;;10.0;;
53939;SDS011;39850;43.324;21.916;2023-08-07T05:23:33;14.0;;;10.0;;
53939;SDS011;39850;43.324;21.916;2023-08-07T05:28:09;15.0;;;10.0;;
53939;SDS011;39850;43.324;21.916;2023-08-07T05:32:46;15.0;;;10.0;;
53939;SDS011;39850;43.324;21.916;2023-08-07T05:37:22;14.0;;;10.0;;
53939;SDS011;39850;43.324;21.916;2023-08-07T05:41:59;14.0;;;10.0;;
53939;SDS011;39850;43.324;21.916;2023-08-07T05:46:35;14.0;;;10.0;;
53939;SDS011;39850;43.324;21.916;2023-08-07T05:51:11;15.0;;;10.0;;
53939;SDS011;39850;43.324;21.916;2023-08-07T05:55:48;15.0;;;10.0;;
53939;SDS011;39850;43.324;21.916;2023-08-07T06:28:04;9.0;;;7.0;;
53939;SDS011;39850;43.324;21.916;2023-08-07T06:32:40;9.0;;;7.0;;
53939;SDS011;39850;43.324;21.916;2023-08-07T06:37:17;9.0;;;7.0;;
53939;SDS011;39850;43.324;21.916;2023-08-07T06:41:54;8.0;;;7.0;;
53939;SDS011;39850;43.324;21.916;2023-08-07T06:46:30;8.0;;;7.0;;
53939;SDS011;39850;43.324;21.916;2023-08-07T06:51:07;8.0;;;7.0;;
53939;SDS011;39850;43.324;21.916;2023-08-07T06:55:45;8.0;;;7.0;;
53939;SDS011;39850;43.324;21.916;2023-08-07T07:00:21;8.0;;;7.0;;
53939;SDS011;39850;43.324;21.916;2023-08-07T07:04:58;8.0;;;7.0;;
53939;SDS011;39850;43.324;21.916;2023-08-07T07:09:34;8.0;;;7.0;;
53939;SDS011;39850;43.324;21.916;2023-08-07T07:14:11;8.0;;;7.0;;
53939;SDS011;39850;43.324;21.916;2023-08-07T07:51:05;12.0;;;9.0;;
53939;SDS011;39850;43.324;21.916;2023-08-07T07:55:47;12.0;;;9.0;;
53939;SDS011;39850;43.324;21.916;2023-08-07T08:00:23;11.0;;;8.0;;
53939;SDS011;39850;43.324;21.916;2023-08-07T08:05:00;11.0;;;8.0;;
53939;SDS011;39850;43.324;21.916;2023-08-07T08:09:36;10.0;;;8.0;;
53939;SDS011;39850;43.324;21.916;2023-08-07T08:14:13;10.0;;;8.0;;
53939;SDS011;39850;43.324;21.916;2023-08-07T08:18:49;10.0;;;8.0;;
53939;SDS011;39850;43.324;21.916;2023-08-07T08:23:25;10.0;;;8.0;;
53939;SDS011;39850;43.324;21.916;2023-08-07T08:28:02;10.0;;;8.0;;
53939;SDS011;39850;43.324;21.916;2023-08-07T08:32:39;10.0;;;8.0;;
53939;SDS011;39850;43.324;21.916;2023-08-07T08:37:16;10.0;;;8.0;;
53939;SDS011;39850;43.324;21.916;2023-08-07T09:09:52;8.0;;;7.0;;
53939;SDS011;39850;43.324;21.916;2023-08-07T09:14:57;8.0;;;7.0;;
53939;SDS011;39850;43.324;21.916;2023-08-07T09:19:35;8.0;;;7.0;;
53939;SDS011;39850;43.324;21.916;2023-08-07T09:24:12;8.0;;;7.0;;
53939;SDS011;39850;43.324;21.916;2023-08-07T09:28:52;8.0;;;7.0;;
53939;SDS011;39850;43.324;21.916;2023-08-07T09:33:31;8.0;;;7.0;;
53939;SDS011;39850;43.324;21.916;2023-08-07T09:38:08;8.0;;;6.0;;
53939;SDS011;39850;43.324;21.916;2023-08-07T09:42:54;8.0;;;6.0;;
53939;SDS011;39850;43.324;21.916;2023-08-07T09:47:31;8.0;;;6.0;;
53939;SDS011;39850;43.324;21.916;2023-08-07T09:52:15;8.0;;;6.0;;
53939;SDS011;39850;43.324;21.916;2023-08-07T09:56:57;8.0;;;6.0;;
53939;SDS011;39850;43.324;21.916;2023-08-07T10:29:39;9.0;;;7.0;;
53939;SDS011;39850;43.324;21.916;2023-08-07T10:34:18;9.0;;;7.0;;
53939;SDS011;39850;43.324;21.916;2023-08-07T10:39:10;8.0;;;7.0;;
53939;SDS011;39850;43.324;21.916;2023-08-07T10:43:48;8.0;;;7.0;;
53939;SDS011;39850;43.324;21.916;2023-08-07T10:48:28;8.0;;;7.0;;
53939;SDS011;39850;43.324;21.916;2023-08-07T10:53:05;8.0;;;7.0;;
53939;SDS011;39850;43.324;21.916;2023-08-07T10:57:41;8.0;;;7.0;;
53939;SDS011;39850;43.324;21.916;2023-08-07T11:02:30;8.0;;;7.0;;
53939;SDS011;39850;43.324;21.916;2023-08-07T11:07:08;8.0;;;7.0;;
53939;SDS011;39850;43.324;21.916;2023-08-07T11:11:48;8.0;;;7.0;;
53939;SDS011;39850;43.324;21.916;2023-08-07T11:16:25;8.0;;;7.0;;
53939;SDS011;39850;43.324;21.916;2023-08-07T11:48:47;9.0;;;6.0;;
53939;SDS011;39850;43.324;21.916;2023-08-07T11:53:34;9.0;;;6.0;;
53939;SDS011;39850;43.324;21.916;2023-08-07T11:58:13;9.0;;;6.0;;
53939;SDS011;39850;43.324;21.916;2023-08-07T12:02:50;8.0;;;6.0;;
53939;SDS011;39850;43.324;21.916;2023-08-07T12:07:29;8.0;;;6.0;;
53939;SDS011;39850;43.324;21.916;2023-08-07T12:12:11;8.0;;;6.0;;
53939;SDS011;39850;43.324;21.916;2023-08-07T12:16:48;8.0;;;6.0;;
53939;SDS011;39850;43.324;21.916;2023-08-07T12:21:29;8.0;;;6.0;;
53939;SDS011;39850;43.324;21.916;2023-08-07T12:26:07;8.0;;;6.0;;
53939;SDS011;39850;43.324;21.916;2023-08-07T12:30:50;8.0;;;6.0;;
53939;SDS011;39850;43.324;21.916;2023-08-07T12:35:27;8.0;;;6.0;;
53939;SDS011;39850;43.324;21.916;2023-08-07T13:12:21;8.0;;;6.0;;
53939;SDS011;39850;43.324;21.916;2023-08-07T13:16:58;8.0;;;6.0;;
53939;SDS011;39850;43.324;21.916;2023-08-07T13:21:34;8.0;;;6.0;;
53939;SDS011;39850;43.324;21.916;2023-08-07T13:26:11;8.0;;;6.0;;
53939;SDS011;39850;43.324;21.916;2023-08-07T13:30:48;8.0;;;6.0;;
53939;SDS011;39850;43.324;21.916;2023-08-07T13:35:24;8.0;;;6.0;;
53939;SDS011;39850;43.324;21.916;2023-08-07T13:40:01;8.0;;;6.0;;
53939;SDS011;39850;43.324;21.916;2023-08-07T13:44:38;8.0;;;6.0;;
53939;SDS011;39850;43.324;21.916;2023-08-07T13:49:15;8.0;;;6.0;;
53939;SDS011;39850;43.324;21.916;2023-08-07T13:53:51;8.0;;;6.0;;
53939;SDS011;39850;43.324;21.916;2023-08-07T13:58:28;8.0;;;6.0;;
53939;SDS011;39850;43.324;21.916;2023-08-07T14:30:49;8.0;;;7.0;;
53939;SDS011;39850;43.324;21.916;2023-08-07T14:35:26;8.0;;;7.0;;
53939;SDS011;39850;43.324;21.916;2023-08-07T14:40:08;8.0;;;7.0;;
53939;SDS011;39850;43.324;21.916;2023-08-07T14:44:45;8.0;;;7.0;;
53939;SDS011;39850;43.324;21.916;2023-08-07T14:49:22;8.0;;;7.0;;
53939;SDS011;39850;43.324;21.916;2023-08-07T14:53:59;8.0;;;7.0;;
53939;SDS011;39850;43.324;21.916;2023-08-07T14:58:35;8.0;;;7.0;;
53939;SDS011;39850;43.324;21.916;2023-08-07T15:03:12;8.0;;;7.0;;
53939;SDS011;39850;43.324;21.916;2023-08-07T15:07:48;8.0;;;7.0;;
53939;SDS011;39850;43.324;21.916;2023-08-07T15:12:25;8.0;;;7.0;;
53939;SDS011;39850;43.324;21.916;2023-08-07T15:17:05;8.0;;;7.0;;
53939;SDS011;39850;43.324;21.916;2023-08-07T15:49:24;8.0;;;6.0;;
53939;SDS011;39850;43.324;21.916;2023-08-07T15:54:01;8.0;;;6.0;;
53939;SDS011;39850;43.324;21.916;2023-08-07T15:58:37;8.0;;;6.0;;
53939;SDS011;39850;43.324;21.916;2023-08-07T16:03:14;8.0;;;6.0;;
53939;SDS011;39850;43.324;21.916;2023-08-07T16:07:50;8.0;;;6.0;;
53939;SDS011;39850;43.324;21.916;2023-08-07T16:12:27;8.0;;;6.0;;
53939;SDS011;39850;43.324;21.916;2023-08-07T16:17:05;8.0;;;6.0;;
53939;SDS011;39850;43.324;21.916;2023-08-07T16:21:41;8.0;;;6.0;;
53939;SDS011;39850;43.324;21.916;2023-08-07T16:26:18;8.0;;;6.0;;
53939;SDS011;39850;43.324;21.916;2023-08-07T16:30:54;8.0;;;6.0;;
53939;SDS011;39850;43.324;21.916;2023-08-07T16:35:31;8.0;;;6.0;;
53939;SDS011;39850;43.324;21.916;2023-08-07T17:12:29;9.0;;;7.0;;
53939;SDS011;39850;43.324;21.916;2023-08-07T17:17:06;9.0;;;7.0;;
53939;SDS011;39850;43.324;21.916;2023-08-07T17:21:43;8.0;;;7.0;;
53939;SDS011;39850;43.324;21.916;2023-08-07T17:26:19;8.0;;;7.0;;
53939;SDS011;39850;43.324;21.916;2023-08-07T17:30:57;9.0;;;7.0;;
53939;SDS011;39850;43.324;21.916;2023-08-07T17:35:33;9.0;;;7.0;;
53939;SDS011;39850;43.324;21.916;2023-08-07T17:40:12;8.0;;;7.0;;
53939;SDS011;39850;43.324;21.916;2023-08-07T17:44:48;8.0;;;7.0;;
53939;SDS011;39850;43.324;21.916;2023-08-07T17:49:25;8.0;;;7.0;;
53939;SDS011;39850;43.324;21.916;2023-08-07T17:54:01;9.0;;;7.0;;
53939;SDS011;39850;43.324;21.916;2023-08-07T17:58:38;9.0;;;7.0;;
53939;SDS011;39850;43.324;21.916;2023-08-07T18:30:52;9.0;;;6.0;;
53939;SDS011;39850;43.324;21.916;2023-08-07T18:35:28;9.0;;;6.0;;
53939;SDS011;39850;43.324;21.916;2023-08-07T18:40:09;9.0;;;6.0;;
53939;SDS011;39850;43.324;21.916;2023-08-07T18:44:46;9.0;;;6.0;;
53939;SDS011;39850;43.324;21.916;2023-08-07T18:49:23;9.0;;;6.0;;
53939;SDS011;39850;43.324;21.916;2023-08-07T18:53:59;9.0;;;6.0;;
53939;SDS011;39850;43.324;21.916;2023-08-07T18:58:36;9.0;;;6.0;;
53939;SDS011;39850;43.324;21.916;2023-08-07T19:03:12;8.0;;;6.0;;
53939;SDS011;39850;43.324;21.916;2023-08-07T19:07:49;8.0;;;6.0;;
53939;SDS011;39850;43.324;21.916;2023-08-07T19:12:25;8.0;;;6.0;;
53939;SDS011;39850;43.324;21.916;2023-08-07T19:17:03;8.0;;;6.0;;
53939;SDS011;39850;43.324;21.916;2023-08-07T19:54:00;7.0;;;6.0;;
53939;SDS011;39850;43.324;21.916;2023-08-07T19:58:37;7.0;;;6.0;;
53939;SDS011;39850;43.324;21.916;2023-08-07T20:03:14;8.0;;;6.0;;
53939;SDS011;39850;43.324;21.916;2023-08-07T20:07:50;8.0;;;6.0;;
53939;SDS011;39850;43.324;21.916;2023-08-07T20:12:27;8.0;;;6.0;;
53939;SDS011;39850;43.324;21.916;2023-08-07T20:17:06;8.0;;;6.0;;
53939;SDS011;39850;43.324;21.916;2023-08-07T20:21:42;8.0;;;6.0;;
53939;SDS011;39850;43.324;21.916;2023-08-07T20:26:20;8.0;;;6.0;;
53939;SDS011;39850;43.324;21.916;2023-08-07T20:30:57;8.0;;;6.0;;
53939;SDS011;39850;43.324;21.916;2023-08-07T20:35:33;8.0;;;6.0;;
53939;SDS011;39850;43.324;21.916;2023-08-07T20:40:11;8.0;;;6.0;;
53939;SDS011;39850;43.324;21.916;2023-08-07T21:12:27;8.0;;;7.0;;
53939;SDS011;39850;43.324;21.916;2023-08-07T21:17:05;8.0;;;7.0;;
53939;SDS011;39850;43.324;21.916;2023-08-07T21:21:42;8.0;;;7.0;;
53939;SDS011;39850;43.324;21.916;2023-08-07T21:26:19;8.0;;;7.0;;
53939;SDS011;39850;43.324;21.916;2023-08-07T21:30:56;8.0;;;7.0;;
53939;SDS011;39850;43.324;21.916;2023-08-07T21:35:33;8.0;;;7.0;;
53939;SDS011;39850;43.324;21.916;2023-08-07T21:40:12;8.0;;;7.0;;
53939;SDS011;39850;43.324;21.916;2023-08-07T21:44:48;8.0;;;6.0;;
53939;SDS011;39850;43.324;21.916;2023-08-07T21:49:25;8.0;;;6.0;;
53939;SDS011;39850;43.324;21.916;2023-08-07T21:54:02;8.0;;;6.0;;
53939;SDS011;39850;43.324;21.916;2023-08-07T21:58:38;8.0;;;6.0;;
53939;SDS011;39850;43.324;21.916;2023-08-07T22:30:55;8.0;;;6.0;;
53939;SDS011;39850;43.324;21.916;2023-08-07T22:35:32;8.0;;;6.0;;
53939;SDS011;39850;43.324;21.916;2023-08-07T22:40:11;8.0;;;6.0;;
53939;SDS011;39850;43.324;21.916;2023-08-07T22:44:48;8.0;;;6.0;;
53939;SDS011;39850;43.324;21.916;2023-08-07T22:49:25;8.0;;;6.0;;
53939;SDS011;39850;43.324;21.916;2023-08-07T22:54:01;8.0;;;7.0;;
53939;SDS011;39850;43.324;21.916;2023-08-07T22:58:37;8.0;;;7.0;;
53939;SDS011;39850;43.324;21.916;2023-08-07T23:03:14;8.0;;;7.0;;
53939;SDS011;39850;43.324;21.916;2023-08-07T23:07:50;8.0;;;7.0;;
53939;SDS011;39850;43.324;21.916;2023-08-07T23:12:27;8.0;;;7.0;;
53939;SDS011;39850;43.324;21.916;2023-08-07T23:17:04;8.0;;;7.0;;
53939;SDS011;39850;43.324;21.916;2023-08-07T23:53:59;8.0;;;6.0;;
53939;SDS011;39850;43.324;21.916;2023-08-07T23:58:36;8.0;;;6.0;;
